sensor_id;sensor_type;location;lat;lon;timestamp;temperature;humidity
24860;DHT22;12936;52.006;4.350;2022-12-07T00:01:26;6.90;99.90
24860;DHT22;12936;52.006;4.350;2022-12-07T00:04:03;6.90;99.90
24860;DHT22;12936;52.006;4.350;2022-12-07T00:06:33;6.90;99.90
24860;DHT22;12936;52.006;4.350;2022-12-07T00:09:06;6.90;99.90
24860;DHT22;12936;52.006;4.350;2022-12-07T00:11:37;6.80;99.90
24860;DHT22;12936;52.006;4.350;2022-12-07T00:14:10;6.80;99.90
24860;DHT22;12936;52.006;4.350;2022-12-07T00:16:42;6.80;99.90
24860;DHT22;12936;52.006;4.350;2022-12-07T00:19:14;6.80;99.90
24860;DHT22;12936;52.006;4.350;2022-12-07T00:21:44;6.70;99.90
24860;DHT22;12936;52.006;4.350;2022-12-07T00:24:12;6.70;99.90
24860;DHT22;12936;52.006;4.350;2022-12-07T00:26:43;6.70;99.90
24860;DHT22;12936;52.006;4.350;2022-12-07T00:29:34;6.60;99.90
24860;DHT22;12936;52.006;4.350;2022-12-07T00:32:06;6.60;99.90
24860;DHT22;12936;52.006;4.350;2022-12-07T00:34:39;6.60;99.90
24860;DHT22;12936;52.006;4.350;2022-12-07T00:37:07;6.50;99.90
24860;DHT22;12936;52.006;4.350;2022-12-07T00:39:36;6.50;99.90
24860;DHT22;12936;52.006;4.350;2022-12-07T00:42:04;6.50;99.90
24860;DHT22;12936;52.006;4.350;2022-12-07T00:44:36;6.40;99.90
24860;DHT22;12936;52.006;4.350;2022-12-07T00:47:07;6.40;99.90
24860;DHT22;12936;52.006;4.350;2022-12-07T00:49:38;6.30;99.90
24860;DHT22;12936;52.006;4.350;2022-12-07T00:52:07;6.30;99.90
24860;DHT22;12936;52.006;4.350;2022-12-07T00:54:36;6.30;99.90
24860;DHT22;12936;52.006;4.350;2022-12-07T00:57:06;6.20;99.90
24860;DHT22;12936;52.006;4.350;2022-12-07T00:59:34;6.20;99.90
24860;DHT22;12936;52.006;4.350;2022-12-07T01:02:03;6.20;99.90
24860;DHT22;12936;52.006;4.350;2022-12-07T01:04:34;6.10;99.90
24860;DHT22;12936;52.006;4.350;2022-12-07T01:07:05;6.10;99.90
24860;DHT22;12936;52.006;4.350;2022-12-07T01:09:34;6.10;99.90
24860;DHT22;12936;52.006;4.350;2022-12-07T01:12:03;6.00;99.90
24860;DHT22;12936;52.006;4.350;2022-12-07T01:14:35;6.00;99.90
24860;DHT22;12936;52.006;4.350;2022-12-07T01:17:04;6.00;99.90
24860;DHT22;12936;52.006;4.350;2022-12-07T01:19:54;5.90;99.90
24860;DHT22;12936;52.006;4.350;2022-12-07T01:22:46;5.90;99.90
24860;DHT22;12936;52.006;4.350;2022-12-07T01:25:17;5.90;99.90
24860;DHT22;12936;52.006;4.350;2022-12-07T01:27:48;5.90;99.90
24860;DHT22;12936;52.006;4.350;2022-12-07T01:30:20;5.90;99.90
24860;DHT22;12936;52.006;4.350;2022-12-07T01:32:50;5.90;99.90
24860;DHT22;12936;52.006;4.350;2022-12-07T01:35:19;5.80;99.90
24860;DHT22;12936;52.006;4.350;2022-12-07T01:37:49;5.90;99.90
24860;DHT22;12936;52.006;4.350;2022-12-07T01:40:19;5.90;99.90
24860;DHT22;12936;52.006;4.350;2022-12-07T01:42:49;5.90;99.90
24860;DHT22;12936;52.006;4.350;2022-12-07T01:45:43;5.80;99.90
24860;DHT22;12936;52.006;4.350;2022-12-07T01:48:16;5.90;99.90
24860;DHT22;12936;52.006;4.350;2022-12-07T01:50:48;5.90;99.90
24860;DHT22;12936;52.006;4.350;2022-12-07T01:53:20;5.90;99.90
24860;DHT22;12936;52.006;4.350;2022-12-07T01:55:52;5.90;99.90
24860;DHT22;12936;52.006;4.350;2022-12-07T01:58:21;5.90;99.90
24860;DHT22;12936;52.006;4.350;2022-12-07T02:00:51;6.00;99.90
24860;DHT22;12936;52.006;4.350;2022-12-07T02:03:25;6.00;99.90
24860;DHT22;12936;52.006;4.350;2022-12-07T02:05:57;6.10;99.90
24860;DHT22;12936;52.006;4.350;2022-12-07T02:08:29;6.20;99.90
24860;DHT22;12936;52.006;4.350;2022-12-07T02:10:57;6.10;99.90
24860;DHT22;12936;52.006;4.350;2022-12-07T02:13:27;6.20;99.90
24860;DHT22;12936;52.006;4.350;2022-12-07T02:16:08;6.10;99.90
24860;DHT22;12936;52.006;4.350;2022-12-07T02:18:54;6.10;99.90
24860;DHT22;12936;52.006;4.350;2022-12-07T02:21:48;6.10;99.90
24860;DHT22;12936;52.006;4.350;2022-12-07T02:24:44;6.10;99.90
24860;DHT22;12936;52.006;4.350;2022-12-07T02:27:43;6.00;99.90
24860;DHT22;12936;52.006;4.350;2022-12-07T02:31:01;6.10;99.90
24860;DHT22;12936;52.006;4.350;2022-12-07T02:33:45;6.10;99.90
24860;DHT22;12936;52.006;4.350;2022-12-07T02:36:26;6.00;99.90
24860;DHT22;12936;52.006;4.350;2022-12-07T02:39:23;6.00;99.90
24860;DHT22;12936;52.006;4.350;2022-12-07T02:41:56;6.00;99.90
24860;DHT22;12936;52.006;4.350;2022-12-07T02:44:27;6.00;99.90
24860;DHT22;12936;52.006;4.350;2022-12-07T02:47:03;6.00;99.90
24860;DHT22;12936;52.006;4.350;2022-12-07T02:49:43;6.00;99.90
24860;DHT22;12936;52.006;4.350;2022-12-07T02:52:34;6.10;99.90
24860;DHT22;12936;52.006;4.350;2022-12-07T02:55:04;6.00;99.90
24860;DHT22;12936;52.006;4.350;2022-12-07T02:57:45;6.10;99.90
24860;DHT22;12936;52.006;4.350;2022-12-07T03:00:38;6.10;99.90
24860;DHT22;12936;52.006;4.350;2022-12-07T03:03:28;6.00;99.90
24860;DHT22;12936;52.006;4.350;2022-12-07T03:06:24;6.10;99.90
24860;DHT22;12936;52.006;4.350;2022-12-07T03:09:05;6.20;99.90
24860;DHT22;12936;52.006;4.350;2022-12-07T03:11:42;6.20;99.90
24860;DHT22;12936;52.006;4.350;2022-12-07T03:14:24;6.20;99.90
24860;DHT22;12936;52.006;4.350;2022-12-07T03:17:00;6.30;99.90
24860;DHT22;12936;52.006;4.350;2022-12-07T03:19:56;6.30;99.90
24860;DHT22;12936;52.006;4.350;2022-12-07T03:22:31;6.40;99.90
24860;DHT22;12936;52.006;4.350;2022-12-07T03:25:05;6.40;99.90
24860;DHT22;12936;52.006;4.350;2022-12-07T03:27:42;6.40;99.90
24860;DHT22;12936;52.006;4.350;2022-12-07T03:30:17;6.40;99.90
24860;DHT22;12936;52.006;4.350;2022-12-07T03:32:59;6.40;99.90
24860;DHT22;12936;52.006;4.350;2022-12-07T03:35:36;6.40;99.90
24860;DHT22;12936;52.006;4.350;2022-12-07T03:38:13;6.40;99.90
24860;DHT22;12936;52.006;4.350;2022-12-07T03:40:50;6.50;99.90
24860;DHT22;12936;52.006;4.350;2022-12-07T03:43:32;6.50;99.90
24860;DHT22;12936;52.006;4.350;2022-12-07T03:46:11;6.50;99.90
24860;DHT22;12936;52.006;4.350;2022-12-07T03:48:50;6.50;99.90
24860;DHT22;12936;52.006;4.350;2022-12-07T03:51:36;6.50;99.90
24860;DHT22;12936;52.006;4.350;2022-12-07T03:54:37;6.50;99.90
24860;DHT22;12936;52.006;4.350;2022-12-07T03:57:10;6.50;99.90
24860;DHT22;12936;52.006;4.350;2022-12-07T03:59:43;6.50;99.90
24860;DHT22;12936;52.006;4.350;2022-12-07T04:02:13;6.40;99.90
24860;DHT22;12936;52.006;4.350;2022-12-07T04:04:45;6.50;99.90
24860;DHT22;12936;52.006;4.350;2022-12-07T04:07:17;6.50;99.90
24860;DHT22;12936;52.006;4.350;2022-12-07T04:09:48;6.50;99.90
24860;DHT22;12936;52.006;4.350;2022-12-07T04:12:16;6.50;99.90
24860;DHT22;12936;52.006;4.350;2022-12-07T04:14:52;6.40;99.90
24860;DHT22;12936;52.006;4.350;2022-12-07T04:17:20;6.40;99.90
24860;DHT22;12936;52.006;4.350;2022-12-07T04:19:52;6.40;99.90
24860;DHT22;12936;52.006;4.350;2022-12-07T04:22:23;6.40;99.90
24860;DHT22;12936;52.006;4.350;2022-12-07T04:24:53;6.40;99.90
24860;DHT22;12936;52.006;4.350;2022-12-07T04:27:27;6.30;99.90
24860;DHT22;12936;52.006;4.350;2022-12-07T04:29:57;6.30;99.90
24860;DHT22;12936;52.006;4.350;2022-12-07T04:32:31;6.30;99.90
24860;DHT22;12936;52.006;4.350;2022-12-07T04:35:00;6.30;99.90
24860;DHT22;12936;52.006;4.350;2022-12-07T04:37:34;6.30;99.90
24860;DHT22;12936;52.006;4.350;2022-12-07T04:40:23;6.30;99.90
24860;DHT22;12936;52.006;4.350;2022-12-07T04:42:53;6.30;99.90
24860;DHT22;12936;52.006;4.350;2022-12-07T04:45:24;6.30;99.90
24860;DHT22;12936;52.006;4.350;2022-12-07T04:47:54;6.20;99.90
24860;DHT22;12936;52.006;4.350;2022-12-07T04:50:24;6.20;99.90
24860;DHT22;12936;52.006;4.350;2022-12-07T04:52:54;6.20;99.90
24860;DHT22;12936;52.006;4.350;2022-12-07T04:55:26;6.20;99.90
24860;DHT22;12936;52.006;4.350;2022-12-07T04:57:56;6.20;99.90
24860;DHT22;12936;52.006;4.350;2022-12-07T05:00:30;6.10;99.90
24860;DHT22;12936;52.006;4.350;2022-12-07T05:02:59;6.00;99.90
24860;DHT22;12936;52.006;4.350;2022-12-07T05:05:28;6.00;99.90
24860;DHT22;12936;52.006;4.350;2022-12-07T05:07:59;6.00;99.90
24860;DHT22;12936;52.006;4.350;2022-12-07T05:10:36;6.00;99.90
24860;DHT22;12936;52.006;4.350;2022-12-07T05:13:04;6.00;99.90
24860;DHT22;12936;52.006;4.350;2022-12-07T05:15:36;5.90;99.90
24860;DHT22;12936;52.006;4.350;2022-12-07T05:18:06;6.00;99.90
24860;DHT22;12936;52.006;4.350;2022-12-07T05:20:36;5.90;99.90
24860;DHT22;12936;52.006;4.350;2022-12-07T05:23:28;5.90;99.90
24860;DHT22;12936;52.006;4.350;2022-12-07T05:26:05;5.90;99.90
24860;DHT22;12936;52.006;4.350;2022-12-07T05:28:34;5.80;99.90
24860;DHT22;12936;52.006;4.350;2022-12-07T05:31:24;5.90;99.90
24860;DHT22;12936;52.006;4.350;2022-12-07T05:33:54;5.90;99.90
24860;DHT22;12936;52.006;4.350;2022-12-07T05:36:28;5.80;99.90
24860;DHT22;12936;52.006;4.350;2022-12-07T05:39:01;5.90;99.90
24860;DHT22;12936;52.006;4.350;2022-12-07T05:41:30;5.90;99.90
24860;DHT22;12936;52.006;4.350;2022-12-07T05:44:17;5.80;99.90
24860;DHT22;12936;52.006;4.350;2022-12-07T05:47:09;5.90;99.90
24860;DHT22;12936;52.006;4.350;2022-12-07T05:49:40;5.90;99.90
24860;DHT22;12936;52.006;4.350;2022-12-07T05:52:50;5.90;99.90
24860;DHT22;12936;52.006;4.350;2022-12-07T05:55:20;6.00;99.90
24860;DHT22;12936;52.006;4.350;2022-12-07T05:57:54;6.00;99.90
24860;DHT22;12936;52.006;4.350;2022-12-07T06:00:40;6.00;99.90
24860;DHT22;12936;52.006;4.350;2022-12-07T06:03:24;6.10;99.90
24860;DHT22;12936;52.006;4.350;2022-12-07T06:06:13;6.00;99.90
24860;DHT22;12936;52.006;4.350;2022-12-07T06:08:41;6.10;99.90
24860;DHT22;12936;52.006;4.350;2022-12-07T06:11:17;6.10;99.90
24860;DHT22;12936;52.006;4.350;2022-12-07T06:14:03;6.10;99.90
24860;DHT22;12936;52.006;4.350;2022-12-07T06:16:35;6.10;99.90
24860;DHT22;12936;52.006;4.350;2022-12-07T06:19:03;6.10;99.90
24860;DHT22;12936;52.006;4.350;2022-12-07T06:21:31;6.10;99.90
24860;DHT22;12936;52.006;4.350;2022-12-07T06:24:00;6.10;99.90
24860;DHT22;12936;52.006;4.350;2022-12-07T06:26:30;6.20;99.90
24860;DHT22;12936;52.006;4.350;2022-12-07T06:28:58;6.20;99.90
24860;DHT22;12936;52.006;4.350;2022-12-07T06:31:27;6.20;99.90
24860;DHT22;12936;52.006;4.350;2022-12-07T06:33:57;6.30;99.90
24860;DHT22;12936;52.006;4.350;2022-12-07T06:36:26;6.30;99.90
24860;DHT22;12936;52.006;4.350;2022-12-07T06:38:55;6.20;99.90
24860;DHT22;12936;52.006;4.350;2022-12-07T06:41:23;6.20;99.90
24860;DHT22;12936;52.006;4.350;2022-12-07T06:43:53;6.20;99.90
24860;DHT22;12936;52.006;4.350;2022-12-07T06:46:22;6.20;99.90
24860;DHT22;12936;52.006;4.350;2022-12-07T06:48:51;6.30;99.90
24860;DHT22;12936;52.006;4.350;2022-12-07T06:51:20;6.20;99.90
24860;DHT22;12936;52.006;4.350;2022-12-07T06:53:49;6.10;99.90
24860;DHT22;12936;52.006;4.350;2022-12-07T06:56:37;6.10;99.90
24860;DHT22;12936;52.006;4.350;2022-12-07T06:59:07;6.10;99.90
24860;DHT22;12936;52.006;4.350;2022-12-07T07:01:36;6.10;99.90
24860;DHT22;12936;52.006;4.350;2022-12-07T07:04:05;6.10;99.90
24860;DHT22;12936;52.006;4.350;2022-12-07T07:06:34;6.20;99.90
24860;DHT22;12936;52.006;4.350;2022-12-07T07:09:03;6.20;99.90
24860;DHT22;12936;52.006;4.350;2022-12-07T07:11:32;6.20;99.90
24860;DHT22;12936;52.006;4.350;2022-12-07T07:14:00;6.20;99.90
24860;DHT22;12936;52.006;4.350;2022-12-07T07:16:30;6.20;99.90
24860;DHT22;12936;52.006;4.350;2022-12-07T07:18:59;6.20;99.90
24860;DHT22;12936;52.006;4.350;2022-12-07T07:21:27;6.20;99.90
24860;DHT22;12936;52.006;4.350;2022-12-07T07:23:56;6.20;99.90
24860;DHT22;12936;52.006;4.350;2022-12-07T07:26:25;6.20;99.90
24860;DHT22;12936;52.006;4.350;2022-12-07T07:28:53;6.20;99.90
24860;DHT22;12936;52.006;4.350;2022-12-07T07:31:25;6.20;99.90
24860;DHT22;12936;52.006;4.350;2022-12-07T07:33:55;6.20;99.90
24860;DHT22;12936;52.006;4.350;2022-12-07T07:36:24;6.20;99.90
24860;DHT22;12936;52.006;4.350;2022-12-07T07:38:53;6.20;99.90
24860;DHT22;12936;52.006;4.350;2022-12-07T07:41:21;6.20;99.90
24860;DHT22;12936;52.006;4.350;2022-12-07T07:43:50;6.20;99.90
24860;DHT22;12936;52.006;4.350;2022-12-07T07:46:18;6.30;99.90
24860;DHT22;12936;52.006;4.350;2022-12-07T07:48:47;6.20;99.90
24860;DHT22;12936;52.006;4.350;2022-12-07T07:51:16;6.30;99.90
24860;DHT22;12936;52.006;4.350;2022-12-07T07:53:45;6.30;99.90
24860;DHT22;12936;52.006;4.350;2022-12-07T07:56:13;6.30;99.90
24860;DHT22;12936;52.006;4.350;2022-12-07T07:58:41;6.30;99.90
24860;DHT22;12936;52.006;4.350;2022-12-07T08:01:10;6.40;99.90
24860;DHT22;12936;52.006;4.350;2022-12-07T08:03:40;6.40;99.90
24860;DHT22;12936;52.006;4.350;2022-12-07T08:06:12;6.40;99.90
24860;DHT22;12936;52.006;4.350;2022-12-07T08:08:45;6.40;99.90
24860;DHT22;12936;52.006;4.350;2022-12-07T08:11:13;6.40;99.90
24860;DHT22;12936;52.006;4.350;2022-12-07T08:13:41;6.40;99.90
24860;DHT22;12936;52.006;4.350;2022-12-07T08:16:10;6.40;99.90
24860;DHT22;12936;52.006;4.350;2022-12-07T08:18:40;6.40;99.90
24860;DHT22;12936;52.006;4.350;2022-12-07T08:21:12;6.40;99.90
24860;DHT22;12936;52.006;4.350;2022-12-07T08:23:42;6.40;99.90
24860;DHT22;12936;52.006;4.350;2022-12-07T08:26:14;6.50;99.90
24860;DHT22;12936;52.006;4.350;2022-12-07T08:28:42;6.50;99.90
24860;DHT22;12936;52.006;4.350;2022-12-07T08:31:13;6.50;99.90
24860;DHT22;12936;52.006;4.350;2022-12-07T08:33:44;6.50;99.90
24860;DHT22;12936;52.006;4.350;2022-12-07T08:36:14;6.50;99.90
24860;DHT22;12936;52.006;4.350;2022-12-07T08:38:42;6.60;99.90
24860;DHT22;12936;52.006;4.350;2022-12-07T08:41:33;6.60;99.90
24860;DHT22;12936;52.006;4.350;2022-12-07T08:44:02;6.60;99.90
24860;DHT22;12936;52.006;4.350;2022-12-07T08:46:35;6.70;99.90
24860;DHT22;12936;52.006;4.350;2022-12-07T08:49:08;6.70;99.90
24860;DHT22;12936;52.006;4.350;2022-12-07T08:51:40;6.80;99.90
24860;DHT22;12936;52.006;4.350;2022-12-07T08:54:13;6.80;99.90
24860;DHT22;12936;52.006;4.350;2022-12-07T08:56:44;6.80;99.90
24860;DHT22;12936;52.006;4.350;2022-12-07T08:59:15;6.80;99.90
24860;DHT22;12936;52.006;4.350;2022-12-07T09:01:45;6.80;99.90
24860;DHT22;12936;52.006;4.350;2022-12-07T09:04:14;6.80;99.90
24860;DHT22;12936;52.006;4.350;2022-12-07T09:06:42;6.80;99.90
24860;DHT22;12936;52.006;4.350;2022-12-07T09:09:12;6.90;99.90
24860;DHT22;12936;52.006;4.350;2022-12-07T09:11:43;6.90;99.90
24860;DHT22;12936;52.006;4.350;2022-12-07T09:14:12;6.90;99.90
24860;DHT22;12936;52.006;4.350;2022-12-07T09:16:41;6.90;99.90
24860;DHT22;12936;52.006;4.350;2022-12-07T09:19:09;6.90;99.90
24860;DHT22;12936;52.006;4.350;2022-12-07T09:21:58;6.90;99.90
24860;DHT22;12936;52.006;4.350;2022-12-07T09:24:26;6.90;99.90
24860;DHT22;12936;52.006;4.350;2022-12-07T09:26:59;6.90;99.90
24860;DHT22;12936;52.006;4.350;2022-12-07T09:29:27;6.90;99.90
24860;DHT22;12936;52.006;4.350;2022-12-07T09:31:56;7.00;99.90
24860;DHT22;12936;52.006;4.350;2022-12-07T09:34:24;6.90;99.90
24860;DHT22;12936;52.006;4.350;2022-12-07T09:36:54;6.90;99.90
24860;DHT22;12936;52.006;4.350;2022-12-07T09:39:22;6.90;99.90
24860;DHT22;12936;52.006;4.350;2022-12-07T09:41:50;6.90;99.90
24860;DHT22;12936;52.006;4.350;2022-12-07T09:44:24;6.90;99.90
24860;DHT22;12936;52.006;4.350;2022-12-07T09:46:54;6.90;99.90
24860;DHT22;12936;52.006;4.350;2022-12-07T09:49:24;6.90;99.90
24860;DHT22;12936;52.006;4.350;2022-12-07T09:52:03;6.90;99.90
24860;DHT22;12936;52.006;4.350;2022-12-07T09:54:47;6.90;99.90
24860;DHT22;12936;52.006;4.350;2022-12-07T09:57:17;6.90;99.90
24860;DHT22;12936;52.006;4.350;2022-12-07T09:59:50;6.90;99.90
24860;DHT22;12936;52.006;4.350;2022-12-07T10:02:34;6.90;99.90
24860;DHT22;12936;52.006;4.350;2022-12-07T10:05:05;7.00;99.90
24860;DHT22;12936;52.006;4.350;2022-12-07T10:07:34;6.90;99.90
24860;DHT22;12936;52.006;4.350;2022-12-07T10:10:04;6.90;99.90
24860;DHT22;12936;52.006;4.350;2022-12-07T10:12:53;6.90;99.90
24860;DHT22;12936;52.006;4.350;2022-12-07T10:15:23;6.90;99.90
24860;DHT22;12936;52.006;4.350;2022-12-07T10:21:13;7.00;99.90
24860;DHT22;12936;52.006;4.350;2022-12-07T10:23:59;7.00;99.90
24860;DHT22;12936;52.006;4.350;2022-12-07T10:26:31;7.00;99.90
24860;DHT22;12936;52.006;4.350;2022-12-07T10:29:13;7.10;99.90
24860;DHT22;12936;52.006;4.350;2022-12-07T10:31:44;7.10;99.90
24860;DHT22;12936;52.006;4.350;2022-12-07T10:34:22;7.10;99.90
24860;DHT22;12936;52.006;4.350;2022-12-07T10:36:53;7.20;99.90
24860;DHT22;12936;52.006;4.350;2022-12-07T10:39:23;7.20;99.90
24860;DHT22;12936;52.006;4.350;2022-12-07T10:41:53;7.30;99.90
24860;DHT22;12936;52.006;4.350;2022-12-07T10:44:25;7.30;99.90
24860;DHT22;12936;52.006;4.350;2022-12-07T10:47:14;7.40;99.90
24860;DHT22;12936;52.006;4.350;2022-12-07T10:50:08;7.50;99.90
24860;DHT22;12936;52.006;4.350;2022-12-07T10:52:51;7.50;99.90
24860;DHT22;12936;52.006;4.350;2022-12-07T10:55:39;7.60;99.90
24860;DHT22;12936;52.006;4.350;2022-12-07T10:58:23;7.60;99.90
24860;DHT22;12936;52.006;4.350;2022-12-07T11:00:58;7.70;99.90
24860;DHT22;12936;52.006;4.350;2022-12-07T11:04:11;7.70;99.90
24860;DHT22;12936;52.006;4.350;2022-12-07T11:06:48;7.80;99.90
24860;DHT22;12936;52.006;4.350;2022-12-07T11:09:46;7.90;99.90
24860;DHT22;12936;52.006;4.350;2022-12-07T11:15:33;8.00;99.90
24860;DHT22;12936;52.006;4.350;2022-12-07T11:18:15;8.10;99.90
24860;DHT22;12936;52.006;4.350;2022-12-07T11:20:55;8.00;99.90
24860;DHT22;12936;52.006;4.350;2022-12-07T11:23:46;8.10;99.90
24860;DHT22;12936;52.006;4.350;2022-12-07T11:26:25;8.20;99.90
24860;DHT22;12936;52.006;4.350;2022-12-07T11:29:10;8.20;99.90
24860;DHT22;12936;52.006;4.350;2022-12-07T11:31:58;8.10;99.90
24860;DHT22;12936;52.006;4.350;2022-12-07T11:34:39;8.00;99.90
24860;DHT22;12936;52.006;4.350;2022-12-07T11:37:17;7.90;99.90
24860;DHT22;12936;52.006;4.350;2022-12-07T11:39:50;7.80;99.90
24860;DHT22;12936;52.006;4.350;2022-12-07T11:42:24;7.80;99.90
24860;DHT22;12936;52.006;4.350;2022-12-07T11:44:56;7.80;99.90
24860;DHT22;12936;52.006;4.350;2022-12-07T11:47:34;7.80;99.90
24860;DHT22;12936;52.006;4.350;2022-12-07T11:50:20;7.80;99.90
24860;DHT22;12936;52.006;4.350;2022-12-07T11:52:56;7.80;99.90
24860;DHT22;12936;52.006;4.350;2022-12-07T11:55:32;7.70;99.90
24860;DHT22;12936;52.006;4.350;2022-12-07T11:58:23;7.70;99.90
24860;DHT22;12936;52.006;4.350;2022-12-07T12:01:08;7.70;99.90
24860;DHT22;12936;52.006;4.350;2022-12-07T12:03:45;7.70;99.90
24860;DHT22;12936;52.006;4.350;2022-12-07T12:06:20;7.60;99.90
24860;DHT22;12936;52.006;4.350;2022-12-07T12:08:55;7.70;99.90
24860;DHT22;12936;52.006;4.350;2022-12-07T12:12:09;7.60;99.90
24860;DHT22;12936;52.006;4.350;2022-12-07T12:15:13;7.60;99.90
24860;DHT22;12936;52.006;4.350;2022-12-07T12:18:00;7.70;99.90
24860;DHT22;12936;52.006;4.350;2022-12-07T12:20:35;7.70;99.90
24860;DHT22;12936;52.006;4.350;2022-12-07T12:23:09;7.70;99.90
24860;DHT22;12936;52.006;4.350;2022-12-07T12:26:03;7.70;99.90
24860;DHT22;12936;52.006;4.350;2022-12-07T12:28:37;7.70;99.90
24860;DHT22;12936;52.006;4.350;2022-12-07T12:31:35;7.70;99.90
24860;DHT22;12936;52.006;4.350;2022-12-07T12:34:31;7.70;99.90
24860;DHT22;12936;52.006;4.350;2022-12-07T12:43:42;7.80;99.90
24860;DHT22;12936;52.006;4.350;2022-12-07T12:46:51;7.80;99.90
24860;DHT22;12936;52.006;4.350;2022-12-07T12:55:53;7.80;99.90
24860;DHT22;12936;52.006;4.350;2022-12-07T12:58:32;7.80;99.90
24860;DHT22;12936;52.006;4.350;2022-12-07T13:04:39;7.60;99.90
24860;DHT22;12936;52.006;4.350;2022-12-07T13:07:51;7.60;99.90
24860;DHT22;12936;52.006;4.350;2022-12-07T13:10:34;7.60;99.90
24860;DHT22;12936;52.006;4.350;2022-12-07T13:13:29;7.60;99.90
24860;DHT22;12936;52.006;4.350;2022-12-07T13:19:01;7.50;99.90
24860;DHT22;12936;52.006;4.350;2022-12-07T13:21:43;7.50;99.90
24860;DHT22;12936;52.006;4.350;2022-12-07T13:24:13;7.60;99.90
24860;DHT22;12936;52.006;4.350;2022-12-07T13:26:43;7.60;99.90
24860;DHT22;12936;52.006;4.350;2022-12-07T13:29:14;7.60;99.90
24860;DHT22;12936;52.006;4.350;2022-12-07T13:31:44;7.60;99.90
24860;DHT22;12936;52.006;4.350;2022-12-07T13:34:33;7.60;99.90
24860;DHT22;12936;52.006;4.350;2022-12-07T13:37:12;7.60;99.90
24860;DHT22;12936;52.006;4.350;2022-12-07T13:39:46;7.50;99.90
24860;DHT22;12936;52.006;4.350;2022-12-07T13:42:22;7.60;99.90
24860;DHT22;12936;52.006;4.350;2022-12-07T13:44:57;7.50;99.90
24860;DHT22;12936;52.006;4.350;2022-12-07T13:47:35;7.60;99.90
24860;DHT22;12936;52.006;4.350;2022-12-07T13:53:21;7.60;99.90
24860;DHT22;12936;52.006;4.350;2022-12-07T13:55:51;7.70;99.90
24860;DHT22;12936;52.006;4.350;2022-12-07T13:58:21;7.70;99.90
24860;DHT22;12936;52.006;4.350;2022-12-07T14:00:50;7.80;99.90
24860;DHT22;12936;52.006;4.350;2022-12-07T14:03:28;7.60;99.90
24860;DHT22;12936;52.006;4.350;2022-12-07T14:06:07;7.50;99.90
24860;DHT22;12936;52.006;4.350;2022-12-07T14:08:43;7.60;99.90
24860;DHT22;12936;52.006;4.350;2022-12-07T14:11:16;7.60;99.90
24860;DHT22;12936;52.006;4.350;2022-12-07T14:13:54;7.60;99.90
24860;DHT22;12936;52.006;4.350;2022-12-07T14:16:27;7.60;99.90
24860;DHT22;12936;52.006;4.350;2022-12-07T14:18:56;7.60;99.90
24860;DHT22;12936;52.006;4.350;2022-12-07T14:21:27;7.60;99.90
24860;DHT22;12936;52.006;4.350;2022-12-07T14:24:18;7.60;99.90
24860;DHT22;12936;52.006;4.350;2022-12-07T14:26:48;7.70;99.90
24860;DHT22;12936;52.006;4.350;2022-12-07T14:29:32;7.70;99.90
24860;DHT22;12936;52.006;4.350;2022-12-07T14:32:23;7.60;99.90
24860;DHT22;12936;52.006;4.350;2022-12-07T14:35:17;7.70;99.90
24860;DHT22;12936;52.006;4.350;2022-12-07T14:37:47;7.70;99.90
24860;DHT22;12936;52.006;4.350;2022-12-07T14:40:20;7.70;99.90
24860;DHT22;12936;52.006;4.350;2022-12-07T14:42:51;7.70;99.90
24860;DHT22;12936;52.006;4.350;2022-12-07T14:45:23;7.60;99.90
24860;DHT22;12936;52.006;4.350;2022-12-07T14:47:52;7.60;99.90
24860;DHT22;12936;52.006;4.350;2022-12-07T14:50:43;7.60;99.90
24860;DHT22;12936;52.006;4.350;2022-12-07T14:53:36;7.60;99.90
24860;DHT22;12936;52.006;4.350;2022-12-07T14:56:07;7.60;99.90
24860;DHT22;12936;52.006;4.350;2022-12-07T14:58:41;7.60;99.90
24860;DHT22;12936;52.006;4.350;2022-12-07T15:01:11;7.60;99.90
24860;DHT22;12936;52.006;4.350;2022-12-07T15:03:43;7.60;99.90
24860;DHT22;12936;52.006;4.350;2022-12-07T15:06:15;7.60;99.90
24860;DHT22;12936;52.006;4.350;2022-12-07T15:08:43;7.60;99.90
24860;DHT22;12936;52.006;4.350;2022-12-07T15:11:14;7.50;99.90
24860;DHT22;12936;52.006;4.350;2022-12-07T15:13:42;7.50;99.90
24860;DHT22;12936;52.006;4.350;2022-12-07T15:16:28;7.50;99.90
24860;DHT22;12936;52.006;4.350;2022-12-07T15:19:21;7.50;99.90
24860;DHT22;12936;52.006;4.350;2022-12-07T15:21:55;7.50;99.90
24860;DHT22;12936;52.006;4.350;2022-12-07T15:24:43;7.40;99.90
24860;DHT22;12936;52.006;4.350;2022-12-07T15:27:15;7.50;99.90
24860;DHT22;12936;52.006;4.350;2022-12-07T15:29:47;7.50;99.90
24860;DHT22;12936;52.006;4.350;2022-12-07T15:32:16;7.50;99.90
24860;DHT22;12936;52.006;4.350;2022-12-07T15:34:45;7.20;99.90
24860;DHT22;12936;52.006;4.350;2022-12-07T15:37:13;7.20;99.90
24860;DHT22;12936;52.006;4.350;2022-12-07T15:39:42;7.20;99.90
24860;DHT22;12936;52.006;4.350;2022-12-07T15:42:11;7.10;99.90
24860;DHT22;12936;52.006;4.350;2022-12-07T15:44:40;7.00;99.90
24860;DHT22;12936;52.006;4.350;2022-12-07T15:47:36;7.00;99.90
24860;DHT22;12936;52.006;4.350;2022-12-07T15:50:25;6.90;99.90
24860;DHT22;12936;52.006;4.350;2022-12-07T15:52:54;6.80;99.90
24860;DHT22;12936;52.006;4.350;2022-12-07T15:55:22;6.80;99.90
24860;DHT22;12936;52.006;4.350;2022-12-07T15:57:53;6.70;99.90
24860;DHT22;12936;52.006;4.350;2022-12-07T16:00:24;6.80;99.90
24860;DHT22;12936;52.006;4.350;2022-12-07T16:02:52;6.70;99.90
24860;DHT22;12936;52.006;4.350;2022-12-07T16:05:21;6.70;99.90
24860;DHT22;12936;52.006;4.350;2022-12-07T16:07:50;6.70;99.90
24860;DHT22;12936;52.006;4.350;2022-12-07T16:10:18;6.70;99.90
24860;DHT22;12936;52.006;4.350;2022-12-07T16:12:47;6.70;99.90
24860;DHT22;12936;52.006;4.350;2022-12-07T16:15:16;6.70;99.90
24860;DHT22;12936;52.006;4.350;2022-12-07T16:17:52;6.80;99.90
24860;DHT22;12936;52.006;4.350;2022-12-07T16:20:25;6.80;99.90
24860;DHT22;12936;52.006;4.350;2022-12-07T16:22:53;6.60;99.90
24860;DHT22;12936;52.006;4.350;2022-12-07T16:25:21;6.60;99.90
24860;DHT22;12936;52.006;4.350;2022-12-07T16:27:51;6.60;99.90
24860;DHT22;12936;52.006;4.350;2022-12-07T16:30:19;6.70;99.90
24860;DHT22;12936;52.006;4.350;2022-12-07T16:32:47;6.70;99.90
24860;DHT22;12936;52.006;4.350;2022-12-07T16:35:29;6.70;99.90
24860;DHT22;12936;52.006;4.350;2022-12-07T16:37:59;6.70;99.90
24860;DHT22;12936;52.006;4.350;2022-12-07T16:40:27;6.70;99.90
24860;DHT22;12936;52.006;4.350;2022-12-07T16:42:56;6.80;99.90
24860;DHT22;12936;52.006;4.350;2022-12-07T16:45:25;6.80;99.90
24860;DHT22;12936;52.006;4.350;2022-12-07T16:47:53;6.80;99.90
24860;DHT22;12936;52.006;4.350;2022-12-07T16:50:21;6.80;99.90
24860;DHT22;12936;52.006;4.350;2022-12-07T16:52:52;6.80;99.90
24860;DHT22;12936;52.006;4.350;2022-12-07T16:55:21;6.80;99.90
24860;DHT22;12936;52.006;4.350;2022-12-07T16:57:49;6.90;99.90
24860;DHT22;12936;52.006;4.350;2022-12-07T17:00:19;6.80;99.90
24860;DHT22;12936;52.006;4.350;2022-12-07T17:02:49;6.90;99.90
24860;DHT22;12936;52.006;4.350;2022-12-07T17:05:18;6.90;99.90